Time;durP1;ratioP1;P1;durP2;ratioP2;P2;SDS_P1;SDS_P2;PMS_P1;PMS_P2;Temp;Humidity;BMP_temperature;BMP_pressure;BME280_temperature;BME280_humidity;BME280_pressure;Samples;Min_cycle;Max_cycle;Signal;HPM_P1;HPM_P2
2023/08/10 00:00:08;;;;;;;2.10;1.20;;;;;;;17.48;68.73;93539.75;513924;28;844;-45
2023/08/10 00:00:25;;;;;;;1.45;1.35;;;;;;;17.41;68.75;93530.91;513386;28;1083;-45
2023/08/10 00:00:40;;;;;;;1.35;1.30;;;;;;;17.29;68.59;93507.75;511955;28;923;-46
2023/08/10 00:00:55;;;;;;;1.40;1.30;;;;;;;17.47;68.80;93535.47;513359;28;948;-44
2023/08/10 00:01:11;;;;;;;1.43;1.33;;;;;;;17.47;68.87;93536.22;513996;28;767;-45
2023/08/10 00:01:26;;;;;;;1.20;1.10;;;;;;;17.48;68.60;93534.88;514022;28;773;-45
2023/08/10 00:01:41;;;;;;;1.20;1.10;;;;;;;17.47;68.71;93539.00;513965;28;775;-45
2023/08/10 00:01:57;;;;;;;1.40;1.30;;;;;;;17.48;68.57;93543.25;513726;28;1186;-45
2023/08/10 00:02:12;;;;;;;1.50;1.20;;;;;;;17.48;68.64;93548.13;513950;28;1641;-45
2023/08/10 00:02:28;;;;;;;1.52;1.20;;;;;;;17.36;68.71;93526.41;512029;28;872;-45
2023/08/10 00:02:44;;;;;;;1.40;1.30;;;;;;;17.48;68.73;93537.66;511951;28;875;-45
2023/08/10 00:02:59;;;;;;;1.50;1.40;;;;;;;17.49;68.85;93538.41;512987;28;1593;-45
2023/08/10 00:03:15;;;;;;;1.35;1.25;;;;;;;17.49;68.44;93532.81;512543;28;1100;-44
2023/08/10 00:03:30;;;;;;;1.20;1.10;;;;;;;17.49;68.14;93532.81;513906;28;861;-44
2023/08/10 00:03:45;;;;;;;1.30;1.20;;;;;;;17.48;67.84;93531.38;513904;28;846;-45
2023/08/10 00:04:01;;;;;;;1.40;1.30;;;;;;;17.47;67.70;93533.41;513961;28;828;-44
2023/08/10 00:04:16;;;;;;;1.40;1.30;;;;;;;17.47;67.58;93533.41;514001;28;903;-44
2023/08/10 00:04:33;;;;;;;1.33;1.23;;;;;;;17.48;67.68;93531.38;513915;28;984;-44
2023/08/10 00:04:48;;;;;;;1.33;1.23;;;;;;;17.47;67.52;93530.63;513827;28;1159;-45
2023/08/10 00:05:05;;;;;;;1.13;1.03;;;;;;;17.48;67.67;93532.06;513971;28;831;-45
2023/08/10 00:05:20;;;;;;;0.90;0.90;;;;;;;17.41;67.67;93524.63;513775;28;1738;-44
2023/08/10 00:05:37;;;;;;;1.10;1.00;;;;;;;17.46;67.75;93531.94;514007;28;828;-45
2023/08/10 00:05:52;;;;;;;1.60;1.20;;;;;;;17.47;67.74;93533.41;513850;28;1649;-44
2023/08/10 00:06:07;;;;;;;1.80;1.17;;;;;;;17.47;68.05;93536.22;513907;28;1124;-44
2023/08/10 00:06:23;;;;;;;1.47;1.07;;;;;;;17.46;67.96;93537.53;513505;28;1370;-45
2023/08/10 00:06:39;;;;;;;1.20;1.10;;;;;;;17.45;67.88;93542.38;513994;28;791;-45
2023/08/10 00:06:54;;;;;;;1.17;1.10;;;;;;;17.42;67.96;93526.06;513932;28;843;-44
2023/08/10 00:07:10;;;;;;;1.27;1.20;;;;;;;17.44;67.83;93534.59;513872;28;1265;-46
2023/08/10 00:07:25;;;;;;;1.30;1.20;;;;;;;17.42;67.95;93529.59;513829;28;1918;-45
2023/08/10 00:07:41;;;;;;;1.03;1.00;;;;;;;17.43;67.81;93533.13;513726;28;1696;-44
2023/08/10 00:07:56;;;;;;;1.17;1.08;;;;;;;17.42;67.91;93529.59;513636;28;1068;-44
2023/08/10 00:08:11;;;;;;;1.20;1.10;;;;;;;17.42;67.88;93532.41;513974;28;931;-44
2023/08/10 00:08:27;;;;;;;1.00;1.00;;;;;;;17.43;67.78;93530.34;513907;28;895;-46
2023/08/10 00:08:42;;;;;;;1.02;1.00;;;;;;;17.43;67.96;93544.31;514035;28;835;-46
2023/08/10 00:08:58;;;;;;;1.27;1.20;;;;;;;17.42;68.13;93535.19;513921;28;821;-44
2023/08/10 00:09:13;;;;;;;1.40;1.30;;;;;;;17.42;67.87;93532.41;513971;28;1052;-44
2023/08/10 00:09:28;;;;;;;1.20;1.10;;;;;;;17.41;67.80;93527.41;513990;28;829;-45
2023/08/10 00:09:44;;;;;;;1.20;1.10;;;;;;;17.43;67.94;93525.47;513995;28;778;-44
2023/08/10 00:09:59;;;;;;;1.30;1.20;;;;;;;17.43;67.89;93533.84;513971;28;840;-45
2023/08/10 00:10:14;;;;;;;1.10;1.10;;;;;;;17.29;67.89;93516.13;513236;28;1806;-44
2023/08/10 00:10:30;;;;;;;1.03;1.03;;;;;;;17.26;67.93;93506.13;513005;28;835;-44
2023/08/10 00:10:49;;;;;;;1.20;1.10;;;;;;;17.36;68.07;93520.81;513214;28;981;-44
2023/08/10 00:11:04;;;;;;;1.08;1.08;;;;;;;17.43;68.23;93531.06;513768;28;1522;-45
2023/08/10 00:11:20;;;;;;;1.00;1.00;;;;;;;17.45;68.18;93534.00;513746;28;926;-46
2023/08/10 00:11:35;;;;;;;1.10;1.00;;;;;;;17.38;68.04;93523.75;513870;28;869;-45
2023/08/10 00:11:51;;;;;;;1.13;1.02;;;;;;;17.42;68.34;93529.59;513750;28;871;-44
2023/08/10 00:12:07;;;;;;;1.03;1.00;;;;;;;17.44;68.33;93529.00;513704;28;992;-45
2023/08/10 00:12:22;;;;;;;1.10;1.10;;;;;;;17.45;68.24;93536.78;513758;28;1100;-44
2023/08/10 00:12:38;;;;;;;1.20;1.10;;;;;;;17.47;68.44;93541.06;513805;28;869;-45
2023/08/10 00:12:53;;;;;;;1.38;1.27;;;;;;;17.44;68.44;93526.94;513798;28;835;-44
2023/08/10 00:13:09;;;;;;;1.27;1.17;;;;;;;17.47;68.47;93535.47;513916;28;856;-44
2023/08/10 00:13:24;;;;;;;1.10;1.00;;;;;;;17.47;68.38;93529.88;513967;28;863;-44
2023/08/10 00:13:39;;;;;;;1.30;1.20;;;;;;;17.47;68.24;93533.41;513980;28;1058;-46
2023/08/10 00:13:55;;;;;;;1.40;1.10;;;;;;;17.36;67.95;93520.06;513827;28;1107;-44
2023/08/10 00:14:10;;;;;;;1.30;0.97;;;;;;;17.48;68.06;93531.38;513996;28;1075;-46
2023/08/10 00:14:25;;;;;;;1.10;1.00;;;;;;;17.49;67.96;93536.34;513311;28;1699;-45
2023/08/10 00:14:41;;;;;;;1.48;1.00;;;;;;;17.51;67.92;93535.78;512820;28;801;-44
2023/08/10 00:14:56;;;;;;;1.20;0.97;;;;;;;17.51;67.97;93536.50;513929;28;843;-44
2023/08/10 00:15:12;;;;;;;0.90;0.90;;;;;;;17.52;67.80;93534.47;513968;28;840;-45
2023/08/10 00:15:27;;;;;;;1.40;1.00;;;;;;;17.52;67.97;93535.19;513805;28;1151;-44
2023/08/10 00:15:43;;;;;;;1.63;1.17;;;;;;;17.48;67.97;93525.78;513975;28;848;-44
2023/08/10 00:15:59;;;;;;;1.35;1.25;;;;;;;17.54;68.08;93535.34;513835;28;918;-44
2023/08/10 00:16:14;;;;;;;1.40;1.30;;;;;;;17.55;68.25;93527.69;513951;28;926;-45
2023/08/10 00:16:31;;;;;;;1.23;1.13;;;;;;;17.52;68.22;93526.78;513920;28;954;-44
2023/08/10 00:16:46;;;;;;;1.30;1.20;;;;;;;17.56;68.15;93537.53;513858;28;1048;-45
2023/08/10 00:17:01;;;;;;;1.40;1.30;;;;;;;17.56;68.08;93532.69;513972;28;891;-46
2023/08/10 00:17:17;;;;;;;1.30;1.20;;;;;;;17.58;68.12;93535.63;512999;28;1739;-45
2023/08/10 00:17:33;;;;;;;1.40;1.30;;;;;;;17.58;68.07;93534.88;512094;28;959;-44
2023/08/10 00:17:49;;;;;;;1.40;1.30;;;;;;;17.59;68.15;93537.06;512352;28;823;-45
2023/08/10 00:18:04;;;;;;;1.17;1.17;;;;;;;17.59;68.24;93539.84;514071;28;932;-44
2023/08/10 00:18:19;;;;;;;1.30;1.20;;;;;;;17.59;68.19;93534.28;513841;28;1024;-44
2023/08/10 00:18:35;;;;;;;1.07;1.03;;;;;;;17.59;68.02;93539.84;514000;28;861;-45
2023/08/10 00:18:50;;;;;;;1.00;1.00;;;;;;;17.60;67.81;93537.81;513908;28;813;-44
2023/08/10 00:19:05;;;;;;;1.02;1.00;;;;;;;17.56;67.59;93532.69;513443;28;1689;-45
2023/08/10 00:19:21;;;;;;;1.03;1.00;;;;;;;17.60;67.62;93544.13;513517;28;856;-44
2023/08/10 00:19:36;;;;;;;1.30;1.20;;;;;;;17.56;67.72;93540.31;513960;28;883;-45
2023/08/10 00:19:51;;;;;;;1.17;1.15;;;;;;;17.60;67.57;93537.81;513296;28;1756;-46
2023/08/10 00:20:10;;;;;;;1.00;1.00;;;;;;;17.61;67.58;93539.25;512829;28;764;-44
2023/08/10 00:20:25;;;;;;;1.25;1.15;;;;;;;17.62;67.62;93535.16;513360;28;1084;-45
2023/08/10 00:20:41;;;;;;;1.23;1.13;;;;;;;17.62;67.36;93537.94;513967;28;808;-45
2023/08/10 00:20:56;;;;;;;1.30;1.20;;;;;;;17.63;67.17;93536.63;513819;28;1234;-45
2023/08/10 00:21:11;;;;;;;1.35;1.25;;;;;;;17.55;67.29;93525.63;513957;28;914;-45
2023/08/10 00:21:27;;;;;;;1.30;1.10;;;;;;;17.62;67.42;93535.88;513941;28;878;-44
2023/08/10 00:21:43;;;;;;;1.40;1.10;;;;;;;17.63;67.44;93533.84;513999;28;862;-45
2023/08/10 00:21:58;;;;;;;1.30;1.20;;;;;;;17.63;67.38;93540.13;513866;28;781;-45
2023/08/10 00:22:14;;;;;;;1.30;1.20;;;;;;;17.65;67.41;93533.97;513758;28;1107;-46
2023/08/10 00:22:29;;;;;;;1.23;1.13;;;;;;;17.64;67.19;93530.44;513953;28;839;-45
2023/08/10 00:22:44;;;;;;;1.30;1.20;;;;;;;17.65;67.08;93534.69;513973;28;859;-45
2023/08/10 00:23:00;;;;;;;1.30;1.20;;;;;;;17.65;67.01;93537.47;513985;28;1266;-44
2023/08/10 00:23:16;;;;;;;1.30;1.20;;;;;;;17.66;66.96;93529.84;513973;28;895;-45
2023/08/10 00:23:31;;;;;;;1.35;1.25;;;;;;;17.65;66.94;93531.91;512168;28;1799;-44
2023/08/10 00:23:46;;;;;;;1.23;1.17;;;;;;;17.67;67.01;93534.13;512437;28;1512;-45
2023/08/10 00:24:02;;;;;;;1.13;1.02;;;;;;;17.67;67.32;93531.31;513863;28;995;-44
2023/08/10 00:24:17;;;;;;;1.60;1.10;;;;;;;17.67;67.51;93532.03;511943;28;813;-44
2023/08/10 00:24:33;;;;;;;1.60;1.17;;;;;;;17.67;67.71;93529.25;513594;28;888;-44
2023/08/10 00:24:48;;;;;;;1.20;1.10;;;;;;;17.65;67.79;93523.53;513879;28;803;-44
2023/08/10 00:25:05;;;;;;;1.23;1.13;;;;;;;17.67;67.74;93528.53;513975;28;782;-44
2023/08/10 00:25:20;;;;;;;1.08;1.08;;;;;;;17.66;67.43;93521.47;513920;28;1323;-45
2023/08/10 00:25:36;;;;;;;1.13;1.03;;;;;;;17.68;67.44;93525.13;513905;28;947;-45
2023/08/10 00:25:51;;;;;;;1.10;1.00;;;;;;;17.69;67.47;93523.09;513893;28;876;-44
2023/08/10 00:26:06;;;;;;;1.02;1.02;;;;;;;17.69;67.38;93531.47;513887;28;870;-44
2023/08/10 00:26:24;;;;;;;1.17;1.10;;;;;;;17.70;67.22;93533.66;513905;28;1051;-44
2023/08/10 00:26:40;;;;;;;1.23;1.13;;;;;;;17.69;67.32;93529.41;513875;28;1087;-44
2023/08/10 00:26:55;;;;;;;1.20;1.10;;;;;;;17.69;67.15;93525.88;513844;28;963;-44
2023/08/10 00:27:10;;;;;;;1.00;1.00;;;;;;;17.68;66.79;93527.94;513882;28;909;-44
2023/08/10 00:27:26;;;;;;;1.00;1.00;;;;;;;17.68;66.48;93524.41;512471;28;1988;-44
2023/08/10 00:27:41;;;;;;;0.93;0.93;;;;;;;17.66;66.80;93522.22;513723;28;896;-44
2023/08/10 00:27:57;;;;;;;0.97;0.97;;;;;;;17.48;67.00;93498.56;513744;28;1639;-44
2023/08/10 00:28:12;;;;;;;1.10;1.00;;;;;;;17.60;66.78;93518.25;513792;28;1179;-44
2023/08/10 00:28:27;;;;;;;1.20;1.10;;;;;;;17.64;66.72;93519.28;513928;28;804;-44
2023/08/10 00:28:43;;;;;;;1.10;1.10;;;;;;;17.64;66.96;93516.50;513943;28;828;-44
2023/08/10 00:28:58;;;;;;;1.10;1.10;;;;;;;17.49;67.12;93500.06;513865;28;757;-43
2023/08/10 00:29:13;;;;;;;1.20;1.10;;;;;;;17.65;67.09;93514.44;513860;28;903;-44
2023/08/10 00:29:29;;;;;;;1.03;0.93;;;;;;;17.64;67.19;93522.06;513905;28;801;-44
2023/08/10 00:29:44;;;;;;;0.97;0.97;;;;;;;17.63;67.02;93517.78;513748;28;1099;-46
2023/08/10 00:30:00;;;;;;;1.10;1.10;;;;;;;17.63;66.91;93517.78;513251;28;1663;-44
2023/08/10 00:30:15;;;;;;;1.20;1.10;;;;;;;17.63;67.16;93520.59;512786;28;1514;-44
2023/08/10 00:30:30;;;;;;;1.20;1.00;;;;;;;17.63;67.26;93517.78;513023;28;1481;-44
2023/08/10 00:30:46;;;;;;;1.50;1.00;;;;;;;17.63;67.21;93517.78;511888;28;892;-44
2023/08/10 00:31:02;;;;;;;1.67;1.10;;;;;;;17.63;67.37;93517.78;513736;28;896;-44
2023/08/10 00:31:18;;;;;;;3.33;1.20;;;;;;;17.62;67.25;93516.34;513879;28;864;-44
2023/08/10 00:31:33;;;;;;;3.40;1.17;;;;;;;17.63;66.89;93514.28;514003;28;965;-44
2023/08/10 00:31:49;;;;;;;1.30;1.10;;;;;;;17.64;67.19;93516.50;513932;28;826;-44
2023/08/10 00:32:05;;;;;;;1.30;1.20;;;;;;;17.64;67.13;93512.94;513303;28;881;-44
2023/08/10 00:32:21;;;;;;;1.13;1.03;;;;;;;17.64;67.26;93510.16;511853;28;966;-45
2023/08/10 00:32:37;;;;;;;1.00;1.00;;;;;;;17.58;67.18;93507.69;511866;28;1708;-44
2023/08/10 00:32:52;;;;;;;1.00;0.90;;;;;;;17.64;67.20;93516.50;512656;28;2440;-44
2023/08/10 00:33:07;;;;;;;0.90;0.90;;;;;;;17.65;66.99;93515.16;513396;28;885;-45
2023/08/10 00:33:24;;;;;;;0.90;0.90;;;;;;;17.66;66.90;93513.09;513582;28;1356;-45
2023/08/10 00:33:39;;;;;;;0.90;0.90;;;;;;;17.66;66.99;93516.63;513830;28;939;-45
2023/08/10 00:33:54;;;;;;;1.13;1.03;;;;;;;17.65;66.83;93517.94;513778;28;849;-45
2023/08/10 00:34:10;;;;;;;1.10;1.00;;;;;;;17.64;66.83;93505.31;513858;28;1376;-45
2023/08/10 00:34:25;;;;;;;0.90;0.90;;;;;;;17.66;66.93;93515.88;513912;28;1165;-45
2023/08/10 00:34:42;;;;;;;1.00;1.00;;;;;;;17.65;67.00;93512.34;513777;28;1731;-45
2023/08/10 00:34:57;;;;;;;1.20;1.10;;;;;;;17.66;66.90;93519.41;513601;28;840;-45
2023/08/10 00:35:13;;;;;;;1.07;1.00;;;;;;;17.66;66.84;93507.50;513749;28;1708;-46
2023/08/10 00:35:30;;;;;;;0.90;0.90;;;;;;;17.64;66.81;93516.50;513073;28;890;-45
2023/08/10 00:35:45;;;;;;;0.88;0.82;;;;;;;17.64;66.48;93516.50;512111;28;955;-45
2023/08/10 00:36:06;;;;;;;0.90;0.90;;;;;;;17.64;66.30;93508.09;513913;28;821;-45
2023/08/10 00:36:22;;;;;;;0.90;0.90;;;;;;;17.64;66.03;93510.16;513559;28;968;-46
2023/08/10 00:36:37;;;;;;;1.10;1.00;;;;;;;17.47;65.89;93491.53;513794;28;827;-45
2023/08/10 00:36:52;;;;;;;1.13;1.08;;;;;;;17.62;66.48;93515.59;513735;28;988;-45
2023/08/10 00:37:08;;;;;;;0.90;0.90;;;;;;;17.63;66.44;93514.28;513783;28;868;-45
2023/08/10 00:37:23;;;;;;;1.10;1.00;;;;;;;17.62;66.70;93513.56;513729;28;891;-44
2023/08/10 00:37:39;;;;;;;1.20;1.10;;;;;;;17.64;66.43;93512.94;513732;28;1154;-45
2023/08/10 00:37:54;;;;;;;1.10;1.00;;;;;;;17.63;66.24;93512.22;513582;28;900;-45
2023/08/10 00:38:10;;;;;;;0.90;0.90;;;;;;;17.65;66.19;93503.25;513817;28;872;-46
2023/08/10 00:38:26;;;;;;;0.90;0.90;;;;;;;17.65;65.85;93509.56;513806;28;1079;-45
2023/08/10 00:38:41;;;;;;;1.80;0.93;;;;;;;17.66;66.19;93510.28;513910;28;931;-46
2023/08/10 00:38:57;;;;;;;1.67;0.90;;;;;;;17.66;66.11;93513.81;513872;28;778;-45
2023/08/10 00:39:12;;;;;;;0.80;0.80;;;;;;;17.66;66.24;93513.81;513973;28;793;-47
2023/08/10 00:39:27;;;;;;;1.00;1.00;;;;;;;17.69;66.44;93517.50;513153;28;1534;-45
2023/08/10 00:39:43;;;;;;;1.10;0.90;;;;;;;17.51;66.39;93489.06;512777;28;906;-45
2023/08/10 00:39:58;;;;;;;1.10;0.90;;;;;;;17.68;66.01;93516.75;513827;28;814;-46
2023/08/10 00:40:15;;;;;;;1.00;1.00;;;;;;;17.69;66.19;93512.66;513869;28;921;-46
2023/08/10 00:40:30;;;;;;;1.10;1.00;;;;;;;17.70;66.13;93514.09;513165;28;1494;-45
2023/08/10 00:40:45;;;;;;;0.90;0.90;;;;;;;17.70;65.94;93516.16;512034;28;822;-46
2023/08/10 00:41:01;;;;;;;0.90;0.90;;;;;;;17.68;65.86;93513.97;515757;28;1011;-45
2023/08/10 00:41:17;;;;;;;0.90;0.90;;;;;;;17.70;65.70;93519.69;515727;28;799;-45
2023/08/10 00:41:32;;;;;;;1.00;1.00;;;;;;;17.72;65.76;93519.09;513718;28;888;-46
2023/08/10 00:41:48;;;;;;;1.10;1.10;;;;;;;17.72;65.90;93519.81;513764;28;1613;-46
2023/08/10 00:42:04;;;;;;;1.10;1.10;;;;;;;17.72;65.97;93519.81;515815;28;899;-45
2023/08/10 00:42:19;;;;;;;1.10;1.10;;;;;;;17.74;66.08;93522.00;515379;28;1115;-46
2023/08/10 00:42:35;;;;;;;1.00;1.00;;;;;;;17.71;66.03;93521.16;513034;28;1711;-44
2023/08/10 00:42:50;;;;;;;0.80;0.80;;;;;;;17.67;64.32;93526.44;512802;28;841;-46
2023/08/10 00:43:05;;;;;;;0.70;0.70;;;;;;;17.68;64.53;93522.34;513810;28;761;-46
2023/08/10 00:43:21;;;;;;;0.80;0.80;;;;;;;17.68;64.60;93516.75;512991;28;1213;-46
2023/08/10 00:43:37;;;;;;;1.05;1.05;;;;;;;17.69;64.87;93521.03;513863;28;871;-45
2023/08/10 00:43:52;;;;;;;1.20;1.10;;;;;;;17.67;65.09;93520.16;513777;28;1214;-45
2023/08/10 00:44:08;;;;;;;1.25;1.02;;;;;;;17.71;65.23;93520.44;513931;28;848;-47
2023/08/10 00:44:23;;;;;;;1.17;0.93;;;;;;;17.72;65.72;93524.66;514010;28;815;-45
2023/08/10 00:44:39;;;;;;;0.93;0.80;;;;;;;17.73;65.74;93520.56;513821;28;868;-46
2023/08/10 00:44:54;;;;;;;1.00;0.82;;;;;;;17.74;65.95;93519.22;513755;28;1011;-44
2023/08/10 00:45:10;;;;;;;1.23;1.00;;;;;;;17.74;65.91;93525.53;513132;28;1704;-45
2023/08/10 00:45:25;;;;;;;1.40;1.10;;;;;;;17.76;66.02;93522.19;512895;28;859;-46
2023/08/10 00:45:41;;;;;;;0.98;0.95;;;;;;;17.76;65.90;93513.81;513319;28;863;-44
2023/08/10 00:45:57;;;;;;;0.70;0.70;;;;;;;17.78;65.83;93522.31;512740;28;968;-45
2023/08/10 00:46:13;;;;;;;1.10;0.80;;;;;;;17.78;65.45;93520.25;511302;29;927;-45
2023/08/10 00:46:29;;;;;;;1.00;0.90;;;;;;;17.79;65.41;93521.72;509760;29;790;-45
2023/08/10 00:46:45;;;;;;;0.90;0.90;;;;;;;17.80;65.24;93523.16;507816;29;948;-46
2023/08/10 00:47:00;;;;;;;0.95;0.95;;;;;;;17.82;65.33;93520.50;507876;29;903;-45
2023/08/10 00:47:16;;;;;;;0.80;0.80;;;;;;;17.82;65.22;93522.59;507529;29;895;-45
2023/08/10 00:47:31;;;;;;;0.80;0.80;;;;;;;17.82;65.37;93520.50;503852;29;1927;-45
2023/08/10 00:47:47;;;;;;;0.90;0.90;;;;;;;17.83;65.52;93521.97;503929;29;1540;-45
2023/08/10 00:48:02;;;;;;;1.17;1.07;;;;;;;17.83;65.62;93521.97;506681;29;810;-46
2023/08/10 00:48:18;;;;;;;1.10;1.00;;;;;;;17.84;65.56;93522.72;507790;29;814;-46
2023/08/10 00:48:33;;;;;;;0.87;0.83;;;;;;;17.83;65.75;93519.19;507921;29;816;-47
2023/08/10 00:48:49;;;;;;;0.95;0.95;;;;;;;17.62;65.44;93496.06;507744;29;887;-44
2023/08/10 00:49:04;;;;;;;1.00;1.00;;;;;;;17.84;65.41;93523.47;506260;29;778;-46
2023/08/10 00:49:20;;;;;;;1.20;1.10;;;;;;;17.85;65.12;93529.75;508189;29;1112;-44
2023/08/10 00:49:35;;;;;;;1.00;0.93;;;;;;;17.86;65.00;93528.44;507814;29;1037;-44
2023/08/10 00:49:51;;;;;;;0.80;0.80;;;;;;;17.86;64.96;93531.25;508619;29;813;-44
2023/08/10 00:50:07;;;;;;;0.85;0.85;;;;;;;17.79;64.79;93516.13;509784;29;778;-45
2023/08/10 00:50:22;;;;;;;0.93;0.82;;;;;;;17.87;64.90;93527.84;509837;28;892;-46
2023/08/10 00:50:38;;;;;;;0.90;0.90;;;;;;;17.88;64.90;93523.00;510079;29;845;-45
2023/08/10 00:50:53;;;;;;;0.90;0.90;;;;;;;17.88;65.09;93529.31;509689;29;793;-45
2023/08/10 00:51:09;;;;;;;0.90;0.90;;;;;;;17.70;65.05;93500.13;508608;29;1432;-45
2023/08/10 00:51:24;;;;;;;0.82;0.82;;;;;;;17.88;64.97;93520.19;508507;29;848;-46
2023/08/10 00:51:40;;;;;;;0.80;0.80;;;;;;;17.90;64.97;93531.50;511352;29;809;-44
2023/08/10 00:51:55;;;;;;;0.80;0.80;;;;;;;17.89;65.00;93527.25;512147;28;841;-45
2023/08/10 00:52:10;;;;;;;0.80;0.80;;;;;;;17.89;65.00;93530.03;513662;28;897;-45
2023/08/10 00:52:26;;;;;;;0.80;0.80;;;;;;;17.90;64.91;93529.47;513739;28;1143;-44
2023/08/10 00:52:41;;;;;;;1.30;0.90;;;;;;;17.90;64.91;93529.47;511960;28;916;-46
2023/08/10 00:52:57;;;;;;;1.40;0.90;;;;;;;17.91;65.10;93524.59;513638;28;935;-45
2023/08/10 00:53:12;;;;;;;0.90;0.90;;;;;;;17.91;65.28;93521.81;513724;28;797;-45
2023/08/10 00:53:28;;;;;;;0.82;0.82;;;;;;;17.91;65.24;93528.13;513724;28;872;-46
2023/08/10 00:53:43;;;;;;;0.82;0.80;;;;;;;17.84;65.33;93520.66;511734;29;827;-46
2023/08/10 00:54:00;;;;;;;0.90;0.90;;;;;;;17.91;65.35;93530.19;511543;29;1009;-45
2023/08/10 00:54:15;;;;;;;0.95;0.95;;;;;;;17.92;65.02;93529.59;509819;29;866;-45
2023/08/10 00:54:31;;;;;;;1.10;0.80;;;;;;;17.91;65.20;93533.69;510217;29;870;-45
2023/08/10 00:54:46;;;;;;;0.93;0.80;;;;;;;17.92;65.09;93526.06;511715;29;912;-44
2023/08/10 00:55:02;;;;;;;0.80;0.80;;;;;;;17.92;64.87;93532.38;509413;29;1671;-45
2023/08/10 00:55:18;;;;;;;0.80;0.80;;;;;;;17.92;65.30;93529.59;509713;29;1073;-45
2023/08/10 00:55:33;;;;;;;0.88;0.88;;;;;;;17.92;65.36;93528.84;510250;28;1005;-45
2023/08/10 00:55:51;;;;;;;1.00;1.00;;;;;;;17.92;65.76;93529.59;509729;29;806;-44
2023/08/10 00:56:08;;;;;;;0.90;0.90;;;;;;;17.92;65.74;93529.59;510462;29;921;-45
2023/08/10 00:56:23;;;;;;;0.80;0.80;;;;;;;17.88;65.58;93523.72;511743;28;1384;-44
2023/08/10 00:56:39;;;;;;;1.13;1.02;;;;;;;17.94;65.65;93526.94;511738;28;814;-44
2023/08/10 00:56:54;;;;;;;1.07;1.00;;;;;;;17.95;65.24;93533.25;512649;28;816;-45
2023/08/10 00:57:10;;;;;;;0.82;0.82;;;;;;;17.94;65.00;93531.78;513616;28;1187;-44
2023/08/10 00:57:26;;;;;;;1.00;0.93;;;;;;;17.95;65.23;93525.59;511743;28;827;-45
2023/08/10 00:57:41;;;;;;;1.38;1.02;;;;;;;17.96;64.69;93534.72;511215;29;1709;-44
2023/08/10 00:57:56;;;;;;;1.27;0.90;;;;;;;17.95;64.78;93527.69;509821;28;888;-44
2023/08/10 00:58:12;;;;;;;0.80;0.80;;;;;;;17.96;64.92;93529.88;508891;28;1224;-44
2023/08/10 00:58:30;;;;;;;0.80;0.80;;;;;;;17.96;64.98;93535.44;511654;28;1187;-45
2023/08/10 00:58:45;;;;;;;0.80;0.80;;;;;;;17.95;65.02;93533.97;511800;28;961;-45
2023/08/10 00:59:01;;;;;;;0.90;0.90;;;;;;;17.91;65.05;93525.31;511883;28;908;-44
2023/08/10 00:59:17;;;;;;;0.90;0.90;;;;;;;17.96;64.72;93535.44;512493;28;835;-44
2023/08/10 00:59:33;;;;;;;0.93;0.93;;;;;;;17.97;64.68;93533.41;511785;29;789;-44
2023/08/10 00:59:48;;;;;;;1.10;1.00;;;;;;;17.97;64.75;93531.34;509628;28;915;-46
2023/08/10 01:00:06;;;;;;;0.77;0.77;;;;;;;17.97;64.97;93528.56;510418;29;1053;-45
2023/08/10 01:00:21;;;;;;;1.30;0.70;;;;;;;17.96;64.57;93529.88;511301;29;1804;-43
2023/08/10 01:00:40;;;;;;;1.67;0.97;;;;;;;17.94;64.34;93526.94;511737;29;773;-44
2023/08/10 01:00:56;;;;;;;1.10;1.00;;;;;;;17.96;64.37;93527.06;511635;28;911;-43
2023/08/10 01:01:12;;;;;;;0.98;0.98;;;;;;;17.95;64.35;93528.38;509721;29;960;-45
2023/08/10 01:01:27;;;;;;;1.10;0.98;;;;;;;17.96;64.51;93517.94;508810;29;1064;-44
2023/08/10 01:01:44;;;;;;;1.17;0.80;;;;;;;17.94;64.61;93526.94;510927;29;815;-43
2023/08/10 01:01:59;;;;;;;0.80;0.80;;;;;;;17.96;64.60;93518.69;511636;29;1083;-44
2023/08/10 01:02:15;;;;;;;0.90;0.90;;;;;;;17.96;64.76;93518.69;511738;29;848;-44
2023/08/10 01:02:31;;;;;;;0.90;0.90;;;;;;;17.97;64.76;93528.56;509703;29;868;-44
2023/08/10 01:02:46;;;;;;;0.80;0.80;;;;;;;17.97;64.56;93519.44;509630;29;960;-45
2023/08/10 01:03:02;;;;;;;0.87;0.87;;;;;;;17.97;64.74;93522.97;510098;29;1590;-45
2023/08/10 01:03:18;;;;;;;0.90;0.90;;;;;;;17.97;65.46;93519.44;511696;29;919;-45
2023/08/10 01:03:34;;;;;;;0.80;0.80;;;;;;;17.97;64.98;93513.84;512970;28;856;-44
2023/08/10 01:03:49;;;;;;;0.80;0.80;;;;;;;17.96;65.26;93527.06;513501;28;1097;-44
2023/08/10 01:04:04;;;;;;;1.07;0.97;;;;;;;17.95;65.26;93517.22;513671;28;1127;-43
2023/08/10 01:04:20;;;;;;;1.10;1.00;;;;;;;17.97;65.17;93522.22;513717;28;1682;-45
2023/08/10 01:04:35;;;;;;;0.93;0.90;;;;;;;17.96;64.98;93520.75;513880;28;911;-45
2023/08/10 01:04:50;;;;;;;0.85;0.85;;;;;;;17.96;65.10;93517.94;513882;28;793;-44
2023/08/10 01:05:08;;;;;;;0.80;0.80;;;;;;;17.96;64.68;93518.69;513833;28;779;-44
2023/08/10 01:05:24;;;;;;;0.80;0.80;;;;;;;17.95;64.73;93520.00;513552;28;1274;-44
2023/08/10 01:05:49;;;;;;;0.90;0.90;;;;;;;17.95;64.39;93528.38;513185;28;1707;-45
2023/08/10 01:06:18;;;;;;;0.82;0.82;;;;;;;17.95;64.46;93519.28;509753;29;886;-43
2023/08/10 01:06:45;;;;;;;0.80;0.80;;;;;;;17.94;64.33;93524.16;511755;29;809;-44
2023/08/10 01:07:25;;;;;;;1.90;0.80;;;;;;;17.95;64.50;93522.09;511664;28;1025;-45
2023/08/10 01:07:45;;;;;;;0.93;0.93;;;;;;;17.95;64.74;93516.50;511681;28;840;-44
2023/08/10 01:08:10;;;;;;;0.98;0.98;;;;;;;17.95;64.69;93514.41;511899;28;860;-44
2023/08/10 01:08:47;;;;;;;0.70;0.70;;;;;;;17.93;64.47;93511.50;511738;28;874;-44
2023/08/10 01:09:22;;;;;;;0.90;0.90;;;;;;;17.96;64.33;93512.38;513623;28;1568;-45
2023/08/10 01:09:54;;;;;;;1.17;0.90;;;;;;;17.95;64.66;93525.59;513311;28;1197;-44
2023/08/10 01:10:26;;;;;;;0.75;0.70;;;;;;;17.94;64.52;93510.19;513023;28;1865;-45
2023/08/10 01:11:00;;;;;;;0.88;0.88;;;;;;;17.96;64.83;93510.31;511144;29;852;-44
2023/08/10 01:11:34;;;;;;;1.42;0.90;;;;;;;17.96;64.38;93510.31;511602;29;1013;-44
2023/08/10 01:12:02;;;;;;;0.90;0.70;;;;;;;17.96;64.45;93510.31;513612;28;838;-43
2023/08/10 01:12:57;;;;;;;0.80;0.80;;;;;;;17.95;64.93;93508.84;513599;28;895;-45
2023/08/10 01:13:22;;;;;;;0.80;0.80;;;;;;;17.95;65.20;93506.03;513538;28;1181;-44
2023/08/10 01:13:47;;;;;;;1.10;0.80;;;;;;;17.80;65.71;93484.06;513464;28;1245;-44
2023/08/10 01:14:09;;;;;;;0.73;0.73;;;;;;;17.94;65.53;93507.38;509574;29;1053;-45
2023/08/10 01:14:28;;;;;;;0.93;0.90;;;;;;;17.96;65.55;93513.09;507688;29;1667;-44
2023/08/10 01:14:55;;;;;;;1.70;0.90;;;;;;;17.96;65.63;93510.31;509674;29;839;-44
2023/08/10 01:15:59;;;;;;;0.85;0.85;;;;;;;17.96;65.62;93513.09;509263;29;907;-43
2023/08/10 01:16:15;;;;;;;0.85;0.85;;;;;;;17.94;65.93;93510.19;507538;29;1028;-44
2023/08/10 01:16:31;;;;;;;0.70;0.70;;;;;;;17.96;66.09;93517.94;505519;29;1336;-44
2023/08/10 01:16:49;;;;;;;0.75;0.75;;;;;;;17.94;65.97;93517.81;505660;29;821;-44
2023/08/10 01:17:08;;;;;;;0.90;0.90;;;;;;;17.92;65.81;93512.84;505286;29;1720;-43
2023/08/10 01:17:28;;;;;;;1.00;0.90;;;;;;;17.96;65.93;93512.38;505669;29;850;-44
2023/08/10 01:17:49;;;;;;;0.95;0.90;;;;;;;17.88;66.07;93506.25;505528;29;940;-45
2023/08/10 01:18:08;;;;;;;0.93;0.93;;;;;;;17.93;65.94;93505.91;505704;29;1181;-44
2023/08/10 01:18:27;;;;;;;0.90;0.90;;;;;;;17.95;66.08;93514.41;506638;29;959;-44
2023/08/10 01:18:43;;;;;;;0.82;0.82;;;;;;;17.95;65.91;93508.84;506951;29;1224;-47
2023/08/10 01:18:59;;;;;;;0.85;0.85;;;;;;;17.87;65.81;93497.13;504404;29;1033;-45
2023/08/10 01:19:36;;;;;;;0.95;0.95;;;;;;;17.96;65.66;93509.56;502515;29;1388;-46
2023/08/10 01:19:52;;;;;;;0.80;0.80;;;;;;;17.96;65.97;93513.09;503957;29;1844;-46
2023/08/10 01:20:09;;;;;;;0.90;0.90;;;;;;;17.95;65.83;93510.91;503693;29;802;-45
2023/08/10 01:20:25;;;;;;;0.80;0.80;;;;;;;17.96;65.90;93509.56;503673;29;1131;-45
2023/08/10 01:20:43;;;;;;;0.80;0.80;;;;;;;17.95;65.77;93508.13;503819;29;817;-46
2023/08/10 01:20:59;;;;;;;0.95;0.95;;;;;;;17.86;65.58;93500.50;505206;29;954;-44
2023/08/10 01:21:48;;;;;;;1.17;1.17;;;;;;;17.98;65.91;93513.25;505658;29;833;-44
2023/08/10 01:22:18;;;;;;;0.85;0.85;;;;;;;17.97;65.99;93514.59;504931;29;1077;-44
2023/08/10 01:22:33;;;;;;;0.70;0.70;;;;;;;17.98;66.10;93513.25;511717;29;872;-44
2023/08/10 01:22:54;;;;;;;0.88;0.88;;;;;;;17.98;66.11;93518.09;511197;28;1713;-44
2023/08/10 01:23:37;;;;;;;1.00;1.00;;;;;;;17.98;65.86;93513.25;509641;29;861;-44